createdAt,value
2017-05-12T00:00:44.948Z,966.2
2017-05-12T00:01:47.643Z,966.2
2017-05-12T00:02:50.003Z,966.2
2017-05-12T00:03:52.382Z,966.3
2017-05-12T00:04:54.750Z,966.2
2017-05-12T00:05:57.141Z,966.1
2017-05-12T00:06:59.531Z,966.2
2017-05-12T00:08:01.898Z,966.1
2017-05-12T00:09:04.286Z,966.2
2017-05-12T00:10:06.708Z,966.2
2017-05-12T00:11:09.088Z,966.1
2017-05-12T00:12:11.499Z,966.2
2017-05-12T00:13:13.866Z,966.2
2017-05-12T00:14:16.502Z,966.1
2017-05-12T00:15:18.842Z,966.1
2017-05-12T00:16:21.207Z,966
2017-05-12T00:17:23.556Z,966.1
2017-05-12T00:18:25.921Z,966
2017-05-12T00:19:28.278Z,966.1
2017-05-12T00:20:30.671Z,965.9
2017-05-12T00:21:33.044Z,965.9
2017-05-12T00:22:35.408Z,966
2017-05-12T00:23:37.804Z,965.8
2017-05-12T00:24:40.222Z,966
2017-05-12T00:25:42.583Z,965.9
2017-05-12T00:26:44.956Z,965.8
2017-05-12T00:27:47.357Z,965.8
2017-05-12T00:28:49.723Z,965.9
2017-05-12T00:29:52.117Z,965.9
2017-05-12T00:30:54.535Z,965.9
2017-05-12T00:31:56.893Z,965.8
2017-05-12T00:32:59.254Z,965.9
2017-05-12T00:34:01.613Z,965.8
2017-05-12T00:35:03.957Z,965.6
2017-05-12T00:36:06.342Z,965.8
2017-05-12T00:37:08.775Z,965.9
2017-05-12T00:38:11.148Z,965.9
2017-05-12T00:39:13.493Z,965.9
2017-05-12T00:40:15.841Z,965.9
2017-05-12T00:41:18.295Z,965.9
2017-05-12T00:42:20.671Z,965.8
2017-05-12T00:43:23.051Z,965.9
2017-05-12T00:44:25.430Z,965.9
2017-05-12T00:45:27.853Z,965.9
2017-05-12T00:46:30.769Z,965.8
2017-05-12T00:47:33.108Z,965.8
2017-05-12T00:48:35.444Z,965.9
2017-05-12T00:49:37.828Z,965.8
2017-05-12T00:50:40.209Z,965.8
2017-05-12T00:51:42.583Z,965.8
2017-05-12T00:52:44.939Z,965.8
2017-05-12T00:53:47.382Z,965.8
2017-05-12T00:54:49.752Z,965.8
2017-05-12T00:55:52.763Z,965.7
2017-05-12T00:56:55.111Z,965.7
2017-05-12T00:57:57.474Z,965.8
2017-05-12T00:58:59.802Z,965.8
2017-05-12T01:00:02.147Z,965.8
2017-05-12T01:01:04.846Z,965.8
2017-05-12T01:02:07.241Z,965.8
2017-05-12T01:03:09.602Z,965.8
2017-05-12T01:04:11.939Z,965.8
2017-05-12T01:05:14.322Z,965.5
2017-05-12T01:06:16.705Z,965.8
2017-05-12T01:07:19.097Z,965.8
2017-05-12T01:08:21.794Z,965.9
2017-05-12T01:09:24.157Z,965.9
2017-05-12T01:10:26.518Z,965.9
2017-05-12T01:11:28.957Z,965.8
2017-05-12T01:12:31.345Z,965.8
2017-05-12T01:13:33.671Z,965.8
2017-05-12T01:14:36.013Z,965.8
2017-05-12T01:15:38.467Z,965.8
2017-05-12T01:16:40.825Z,965.8
2017-05-12T01:17:43.169Z,965.8
2017-05-12T01:18:45.495Z,965.9
2017-05-12T01:19:47.871Z,965.8
2017-05-12T01:20:50.240Z,965.8
2017-05-12T01:21:52.610Z,965.8
2017-05-12T01:22:54.998Z,965.8
2017-05-12T01:23:57.359Z,965.8
2017-05-12T01:24:59.723Z,965.8
2017-05-12T01:26:02.104Z,965.8
2017-05-12T01:27:04.465Z,965.9
2017-05-12T01:28:06.819Z,965.9
2017-05-12T01:29:09.180Z,965.9
2017-05-12T01:30:11.540Z,965.8
2017-05-12T01:31:13.921Z,965.8
2017-05-12T01:32:16.290Z,965.8
2017-05-12T01:33:18.676Z,965.9
2017-05-12T01:34:21.038Z,965.8
2017-05-12T01:35:23.350Z,965.8
2017-05-12T01:36:25.702Z,965.9
2017-05-12T01:37:28.077Z,965.9
2017-05-12T01:38:30.422Z,965.9
2017-05-12T01:39:32.776Z,965.9
2017-05-12T01:40:35.112Z,965.9
2017-05-12T01:41:37.538Z,966
2017-05-12T01:42:39.917Z,965.9
2017-05-12T01:43:42.296Z,966
2017-05-12T01:44:44.625Z,965.9
2017-05-12T01:45:46.979Z,966
2017-05-12T01:46:49.396Z,965.6
2017-05-12T01:47:51.776Z,965.9
2017-05-12T01:48:54.110Z,966
2017-05-12T01:49:56.449Z,966
2017-05-12T01:50:58.857Z,966
2017-05-12T01:52:01.230Z,966
2017-05-12T01:53:03.581Z,965.9
2017-05-12T01:54:05.966Z,965.9
2017-05-12T01:55:08.376Z,965.9
2017-05-12T01:56:10.726Z,966
2017-05-12T01:57:13.138Z,966
2017-05-12T01:58:15.525Z,966
2017-05-12T01:59:17.880Z,966
2017-05-12T02:00:20.576Z,966
2017-05-12T02:01:22.948Z,966
2017-05-12T02:02:25.409Z,966.1
2017-05-12T02:03:27.814Z,966.1
2017-05-12T02:04:30.148Z,966.1
2017-05-12T02:05:32.511Z,966.2
2017-05-12T02:06:34.857Z,966.1
2017-05-12T02:07:37.200Z,966.1
2017-05-12T02:08:39.562Z,966.1
2017-05-12T02:09:41.890Z,966.1
2017-05-12T02:10:44.238Z,966.1
2017-05-12T02:11:46.616Z,966.2
2017-05-12T02:12:48.968Z,966.1
2017-05-12T02:13:51.302Z,966.2
2017-05-12T02:14:53.664Z,966.1
2017-05-12T02:15:56.047Z,966.2
2017-05-12T02:16:58.442Z,966.1
2017-05-12T02:18:00.800Z,966.2
2017-05-12T02:19:03.146Z,966.2
2017-05-12T02:20:05.480Z,966.1
2017-05-12T02:21:07.938Z,966.1
2017-05-12T02:22:10.333Z,966.2
2017-05-12T02:23:12.645Z,966.2
2017-05-12T02:24:14.974Z,966.1
2017-05-12T02:25:17.376Z,966.2
2017-05-12T02:26:19.771Z,966.3
2017-05-12T02:27:22.112Z,966.3
2017-05-12T02:28:24.458Z,966.3
2017-05-12T02:29:26.823Z,966.2
2017-05-12T02:30:29.286Z,966.3
2017-05-12T02:31:31.646Z,966.3
2017-05-12T02:32:33.976Z,966.4
2017-05-12T02:33:36.316Z,966.4
2017-05-12T02:34:38.675Z,966.4
2017-05-12T02:35:40.999Z,966.4
2017-05-12T02:36:43.425Z,966.3
2017-05-12T02:37:45.765Z,966.3
2017-05-12T02:38:48.192Z,966.4
2017-05-12T02:39:50.536Z,966.3
2017-05-12T02:40:52.872Z,966.3
2017-05-12T02:41:55.243Z,966.3
2017-05-12T02:42:57.612Z,966.4
2017-05-12T02:43:59.971Z,966.4
2017-05-12T02:45:02.316Z,966.3
2017-05-12T02:46:04.660Z,966.3
2017-05-12T02:47:07.016Z,966.3
2017-05-12T02:48:09.416Z,966.3
2017-05-12T02:49:11.729Z,966.3
2017-05-12T02:50:14.112Z,966.3
2017-05-12T02:51:16.419Z,966.3
2017-05-12T02:52:18.817Z,966.3
2017-05-12T02:53:21.192Z,966.3
2017-05-12T02:54:23.564Z,966.3
2017-05-12T02:55:25.914Z,966.3
2017-05-12T02:56:28.296Z,966.3
2017-05-12T02:57:30.685Z,966.4
2017-05-12T02:58:33.062Z,966.4
2017-05-12T02:59:35.362Z,966.4
2017-05-12T03:00:37.722Z,966.3
2017-05-12T03:01:40.127Z,966.3
2017-05-12T03:02:42.488Z,966.3
2017-05-12T03:03:44.840Z,966.4
2017-05-12T03:04:47.223Z,966.3
2017-05-12T03:05:49.578Z,966.4
2017-05-12T03:06:51.926Z,966.4
2017-05-12T03:07:54.269Z,966.4
2017-05-12T03:08:56.623Z,966.4
2017-05-12T03:09:59.012Z,966.4
2017-05-12T03:11:01.347Z,966.3
2017-05-12T03:12:03.730Z,966.4
2017-05-12T03:13:06.068Z,966.3
2017-05-12T03:14:08.405Z,966.3
2017-05-12T03:15:10.792Z,966.3
2017-05-12T03:16:13.167Z,966.3
2017-05-12T03:17:15.516Z,966.3
2017-05-12T03:18:18.141Z,966.4
2017-05-12T03:19:20.506Z,966.3
2017-05-12T03:20:22.854Z,966.4
2017-05-12T03:21:25.230Z,966.4
2017-05-12T03:22:27.639Z,966.3
2017-05-12T03:23:30.017Z,966.4
2017-05-12T03:24:32.363Z,966.4
2017-05-12T03:25:34.751Z,966
2017-05-12T03:26:37.106Z,966.3
2017-05-12T03:27:39.471Z,966.3
2017-05-12T03:28:41.803Z,966.3
2017-05-12T03:29:44.146Z,966.3
2017-05-12T03:30:46.507Z,966.4
2017-05-12T03:31:48.850Z,966.3
2017-05-12T03:32:51.415Z,966.4
2017-05-12T03:33:53.761Z,966.4
2017-05-12T03:34:56.072Z,966.4
2017-05-12T03:35:58.474Z,966.4
2017-05-12T03:37:00.831Z,966.4
2017-05-12T03:38:03.185Z,966.4
2017-05-12T03:39:05.521Z,966.5
2017-05-12T03:40:07.950Z,966.5
2017-05-12T03:41:10.294Z,966.4
2017-05-12T03:42:12.654Z,966.4
2017-05-12T03:43:15.015Z,966.4
2017-05-12T03:44:17.391Z,966.4
2017-05-12T03:45:19.755Z,966.4
2017-05-12T03:46:22.086Z,966.4
2017-05-12T03:47:24.428Z,966.5
2017-05-12T03:48:26.816Z,966.5
2017-05-12T03:49:29.206Z,966.5
2017-05-12T03:50:31.527Z,966.5
2017-05-12T03:51:33.901Z,966.5
2017-05-12T03:52:36.294Z,966.5
2017-05-12T03:53:38.670Z,966.5
2017-05-12T03:54:41.053Z,966.5
2017-05-12T03:55:43.440Z,966.5
2017-05-12T03:56:45.809Z,966.5
2017-05-12T03:57:48.239Z,966.5
2017-05-12T03:58:50.568Z,966.5
2017-05-12T03:59:52.899Z,966.4
2017-05-12T04:00:55.266Z,966.5
2017-05-12T04:01:58.140Z,966.5
2017-05-12T04:03:00.509Z,966.5
2017-05-12T04:04:02.844Z,966.6
2017-05-12T04:05:05.306Z,966.3
2017-05-12T04:06:07.700Z,966.6
2017-05-12T04:07:10.036Z,966.5
2017-05-12T04:08:12.430Z,966.5
2017-05-12T04:09:14.778Z,966.5
2017-05-12T04:10:26.085Z,966.6
2017-05-12T04:11:28.470Z,966.6
2017-05-12T04:12:30.846Z,966.5
2017-05-12T04:13:33.189Z,966.6
2017-05-12T04:14:35.533Z,966.6
2017-05-12T04:15:37.918Z,966.6
2017-05-12T04:16:40.269Z,966.5
2017-05-12T04:17:42.616Z,966.6
2017-05-12T04:18:45.000Z,966.6
2017-05-12T04:19:47.376Z,966.6
2017-05-12T04:20:49.732Z,966.6
2017-05-12T04:21:52.072Z,966.7
2017-05-12T04:22:54.395Z,966.7
2017-05-12T04:23:56.750Z,966.7
2017-05-12T04:24:59.164Z,966.6
2017-05-12T04:26:01.500Z,966.7
2017-05-12T04:27:03.837Z,966.7
2017-05-12T04:28:06.182Z,966.6
2017-05-12T04:29:08.559Z,966.6
2017-05-12T04:30:10.910Z,966.6
2017-05-12T04:31:13.262Z,966.6
2017-05-12T04:32:15.610Z,966.6
2017-05-12T04:33:17.990Z,966.7
2017-05-12T04:34:20.338Z,966.6
2017-05-12T04:35:22.660Z,966.6
2017-05-12T04:36:25.050Z,966.4
2017-05-12T04:37:27.380Z,966.7
2017-05-12T04:38:30.372Z,966.6
2017-05-12T04:39:32.796Z,966.6
2017-05-12T04:40:35.179Z,966.7
2017-05-12T04:41:37.557Z,966.7
2017-05-12T04:42:39.995Z,966.6
2017-05-12T04:43:42.430Z,966.6
2017-05-12T04:44:44.833Z,966.1
2017-05-12T04:45:47.449Z,966.5
2017-05-12T04:46:49.846Z,966.7
2017-05-12T04:47:52.239Z,966.7
2017-05-12T04:48:54.899Z,966.7
2017-05-12T04:49:57.302Z,966.6
2017-05-12T04:50:59.726Z,966.7
2017-05-12T04:52:02.037Z,966.7
2017-05-12T04:53:04.369Z,966.7
2017-05-12T04:54:06.755Z,966.7
2017-05-12T04:55:09.184Z,966.7
2017-05-12T04:56:11.545Z,966.7
2017-05-12T04:57:13.932Z,966.7
2017-05-12T04:58:16.312Z,966.7
2017-05-12T04:59:18.651Z,966.7
2017-05-12T05:00:21.058Z,966.7
2017-05-12T05:01:23.420Z,966.7
2017-05-12T05:02:25.797Z,966.7
2017-05-12T05:03:28.225Z,966.7
2017-05-12T05:04:30.603Z,966.7
2017-05-12T05:05:33.006Z,966.7
2017-05-12T05:06:35.385Z,966.8
2017-05-12T05:07:37.851Z,966.7
2017-05-12T05:08:40.721Z,966.6
2017-05-12T05:09:43.141Z,966.8
2017-05-12T05:10:45.713Z,966.8
2017-05-12T05:11:48.172Z,966.9
2017-05-12T05:12:50.626Z,967
2017-05-12T05:13:53.014Z,966.9
2017-05-12T05:14:56.605Z,966.9
2017-05-12T05:15:59.109Z,967
2017-05-12T05:17:01.470Z,967
2017-05-12T05:18:03.832Z,967
2017-05-12T05:19:06.173Z,967
2017-05-12T05:20:08.578Z,966.9
2017-05-12T05:21:10.986Z,966.7
2017-05-12T05:22:13.384Z,966.9
2017-05-12T05:23:15.755Z,966.9
2017-05-12T05:24:18.127Z,966.9
2017-05-12T05:25:20.476Z,966.9
2017-05-12T05:26:22.899Z,966.8
2017-05-12T05:27:25.298Z,966.8
2017-05-12T05:28:27.690Z,966.9
2017-05-12T05:29:30.118Z,966.7
2017-05-12T05:30:32.493Z,966.9
2017-05-12T05:31:34.829Z,966.9
2017-05-12T05:32:40.758Z,966.9
2017-05-12T05:33:52.047Z,966.9
2017-05-12T05:34:54.480Z,966.9
2017-05-12T05:35:56.941Z,967
2017-05-12T05:37:00.159Z,967
2017-05-12T05:38:02.518Z,967
2017-05-12T05:39:04.872Z,966.9
2017-05-12T05:40:07.233Z,967
2017-05-12T05:41:09.691Z,967
2017-05-12T05:42:12.060Z,967
2017-05-12T05:43:14.420Z,967
2017-05-12T05:44:16.776Z,967
2017-05-12T05:45:19.217Z,966.9
2017-05-12T05:46:21.570Z,967
2017-05-12T05:47:23.934Z,966.7
2017-05-12T05:48:26.256Z,967
2017-05-12T05:49:28.714Z,966.7
2017-05-12T05:50:31.103Z,967
2017-05-12T05:51:33.513Z,966.9
2017-05-12T05:52:35.918Z,967
2017-05-12T05:53:38.406Z,967
2017-05-12T05:54:40.834Z,967
2017-05-12T05:55:43.251Z,967
2017-05-12T05:56:45.631Z,967
2017-05-12T05:57:48.190Z,967
2017-05-12T05:58:50.700Z,967
2017-05-12T05:59:53.072Z,967
2017-05-12T06:00:55.423Z,967
2017-05-12T06:01:57.927Z,966.8
2017-05-12T06:03:00.358Z,967.1
2017-05-12T06:04:02.733Z,966.8
2017-05-12T06:05:05.100Z,967
2017-05-12T06:06:07.454Z,967.1
2017-05-12T06:07:09.899Z,967
2017-05-12T06:08:12.296Z,967.1
2017-05-12T06:09:14.688Z,967.1
2017-05-12T06:10:17.105Z,967.1
2017-05-12T06:11:19.611Z,967.1
2017-05-12T06:12:21.949Z,967
2017-05-12T06:13:24.354Z,967.1
2017-05-12T06:14:26.738Z,967.1
2017-05-12T06:15:29.247Z,967.1
2017-05-12T06:16:31.600Z,967.1
2017-05-12T06:17:34.620Z,967.1
2017-05-12T06:18:37.022Z,967
2017-05-12T06:19:39.640Z,967.1
2017-05-12T06:20:42.107Z,967.1
2017-05-12T06:21:44.560Z,967.1
2017-05-12T06:22:47.001Z,967.1
2017-05-12T06:23:49.457Z,967.1
2017-05-12T06:24:51.928Z,967.1
2017-05-12T06:25:54.324Z,966.8
2017-05-12T06:26:56.690Z,967.1
2017-05-12T06:27:59.152Z,967.1
2017-05-12T06:29:01.608Z,967.1
2017-05-12T06:30:04.049Z,967.1
2017-05-12T06:31:06.476Z,967.1
2017-05-12T06:32:08.849Z,967.1
2017-05-12T06:33:11.264Z,966.9
2017-05-12T06:34:13.641Z,967.1
2017-05-12T06:35:16.028Z,966.7
2017-05-12T06:36:18.509Z,967.2
2017-05-12T06:37:20.915Z,967.2
2017-05-12T06:38:23.283Z,967.2
2017-05-12T06:39:25.730Z,967.2
2017-05-12T06:40:28.184Z,967.3
2017-05-12T06:41:30.607Z,967.3
2017-05-12T06:42:33.019Z,967.3
2017-05-12T06:43:35.404Z,967.3
2017-05-12T06:44:37.828Z,967.3
2017-05-12T06:45:40.152Z,967.1
2017-05-12T06:46:42.576Z,967.3
2017-05-12T06:47:44.956Z,967.3
2017-05-12T06:48:47.342Z,967.4
2017-05-12T06:49:49.850Z,967.4
2017-05-12T06:50:52.300Z,967.3
2017-05-12T06:51:54.745Z,967.4
2017-05-12T06:52:57.206Z,967.3
2017-05-12T06:53:59.702Z,967.5
2017-05-12T06:55:02.412Z,967.4
2017-05-12T06:56:04.968Z,967.2
2017-05-12T06:57:07.397Z,967.4
2017-05-12T06:58:09.888Z,967.2
2017-05-12T06:59:12.329Z,967.5
2017-05-12T07:00:14.883Z,967.3
2017-05-12T07:01:17.360Z,967.5
2017-05-12T07:02:19.821Z,967.5
2017-05-12T07:03:22.196Z,967.6
2017-05-12T07:04:24.641Z,967.3
2017-05-12T07:05:27.782Z,967.5
2017-05-12T07:06:30.276Z,967.5
2017-05-12T07:07:32.650Z,967.6
2017-05-12T07:08:35.363Z,967.6
2017-05-12T07:09:37.762Z,967.6
2017-05-12T07:10:40.176Z,967.6
2017-05-12T07:11:43.166Z,967.6
2017-05-12T07:12:45.584Z,967.6
2017-05-12T07:13:48.109Z,967.5
2017-05-12T07:14:51.135Z,967.5
2017-05-12T07:15:53.547Z,967.8
2017-05-12T07:16:56.068Z,967.7
2017-05-12T07:17:58.561Z,967.8
2017-05-12T07:19:01.101Z,967.8
2017-05-12T07:20:03.595Z,967.8
2017-05-12T07:21:06.061Z,967.8
2017-05-12T07:22:09.442Z,967.6
2017-05-12T07:23:11.928Z,967.8
2017-05-12T07:24:14.410Z,967.9
2017-05-12T07:25:16.845Z,967.9
2017-05-12T07:26:20.483Z,967.9
2017-05-12T07:27:22.993Z,967.8
2017-05-12T07:28:25.836Z,967.9
2017-05-12T07:29:28.672Z,967.9
2017-05-12T07:30:31.611Z,967.9
2017-05-12T07:31:34.276Z,967.7
2017-05-12T07:32:36.812Z,967.9
2017-05-12T07:33:40.653Z,967.9
2017-05-12T07:34:43.452Z,967.9
2017-05-12T07:35:46.190Z,967.9
2017-05-12T07:36:49.150Z,967.9
2017-05-12T07:37:51.796Z,967.7
2017-05-12T07:38:54.384Z,967.7
2017-05-12T07:39:56.843Z,967.9
2017-05-12T07:40:59.422Z,967.9
2017-05-12T07:42:01.936Z,968
2017-05-12T07:43:04.357Z,968
2017-05-12T07:44:08.030Z,968
2017-05-12T07:45:10.478Z,968
2017-05-12T07:46:12.916Z,968
2017-05-12T07:47:15.433Z,968
2017-05-12T07:48:18.197Z,968
2017-05-12T07:49:21.747Z,968
2017-05-12T07:50:28.685Z,968
2017-05-12T07:51:31.112Z,967.8
2017-05-12T07:52:33.539Z,968
2017-05-12T07:53:36.000Z,968.1
2017-05-12T07:54:38.489Z,968.1
2017-05-12T07:55:41.057Z,968.1
2017-05-12T07:56:43.595Z,968.1
2017-05-12T07:57:50.880Z,968.1
2017-05-12T07:58:54.641Z,968.1
2017-05-12T07:59:57.044Z,968
2017-05-12T08:00:59.590Z,968.1
2017-05-12T08:02:02.003Z,968.1
2017-05-12T08:03:04.501Z,968.1
2017-05-12T08:04:06.934Z,968.1
2017-05-12T08:05:09.401Z,968.1
2017-05-12T08:06:12.203Z,968.1
2017-05-12T08:07:14.659Z,968.1
2017-05-12T08:08:17.092Z,968.1
2017-05-12T08:09:19.547Z,968.1
2017-05-12T08:10:21.960Z,968.1
2017-05-12T08:11:24.413Z,968.1
2017-05-12T08:12:26.815Z,968.1
2017-05-12T08:13:29.181Z,968.1
2017-05-12T08:14:31.572Z,967.9
2017-05-12T08:15:34.036Z,968.1
2017-05-12T08:16:36.580Z,968.1
2017-05-12T08:17:39.211Z,968.1
2017-05-12T08:18:41.636Z,968.1
2017-05-12T08:19:44.080Z,968.1
2017-05-12T08:20:46.638Z,968.1
2017-05-12T08:21:49.112Z,968.1
2017-05-12T08:22:51.621Z,968.1
2017-05-12T08:23:54.060Z,968.2
2017-05-12T08:24:56.519Z,968.2
2017-05-12T08:25:59.096Z,967.9
2017-05-12T08:27:01.514Z,968.1
2017-05-12T08:28:04.665Z,968.2
2017-05-12T08:29:07.468Z,968
2017-05-12T08:30:09.984Z,968.2
2017-05-12T08:31:12.458Z,968.2
2017-05-12T08:32:14.911Z,968.2
2017-05-12T08:33:17.372Z,968.2
2017-05-12T08:34:19.874Z,968
2017-05-12T08:35:22.329Z,968.2
2017-05-12T08:36:24.775Z,968
2017-05-12T08:37:27.156Z,968.2
2017-05-12T08:38:29.644Z,968.2
2017-05-12T08:39:32.007Z,968.2
2017-05-12T08:40:34.477Z,968.2
2017-05-12T08:41:36.900Z,968.2
2017-05-12T08:42:39.383Z,968.3
2017-05-12T08:43:41.817Z,968.1
2017-05-12T08:44:44.280Z,968.3
2017-05-12T08:45:46.924Z,968.3
2017-05-12T08:46:49.412Z,968.2
2017-05-12T08:47:51.832Z,968.2
2017-05-12T08:48:54.327Z,968.3
2017-05-12T08:49:56.911Z,968.3
2017-05-12T08:50:59.417Z,968.3
2017-05-12T08:52:01.890Z,968.3
2017-05-12T08:53:04.363Z,968.3
2017-05-12T08:54:06.809Z,968.3
2017-05-12T08:55:09.310Z,968.3
2017-05-12T08:56:14.240Z,968.3
2017-05-12T08:57:16.765Z,968.4
2017-05-12T08:58:19.229Z,968.3
2017-05-12T08:59:21.769Z,968.4
2017-05-12T09:00:24.575Z,968.3
2017-05-12T09:01:27.057Z,968.3
2017-05-12T09:02:29.575Z,968.3
2017-05-12T09:03:31.993Z,968.3
2017-05-12T09:04:34.473Z,968.4
2017-05-12T09:05:36.977Z,968.4
2017-05-12T09:06:39.481Z,968.2
2017-05-12T09:07:41.918Z,968.2
2017-05-12T09:08:44.680Z,968.4
2017-05-12T09:09:47.845Z,968.4
2017-05-12T09:10:50.424Z,968.4
2017-05-12T09:11:52.937Z,968.5
2017-05-12T09:12:56.016Z,968.4
2017-05-12T09:13:58.888Z,968.4
2017-05-12T09:15:01.600Z,968.4
2017-05-12T09:16:04.489Z,968.3
2017-05-12T09:17:08.040Z,968.5
2017-05-12T09:18:11.411Z,968.6
2017-05-12T09:19:14.502Z,968.3
2017-05-12T09:20:18.484Z,968.5
2017-05-12T09:21:21.309Z,968.4
2017-05-12T09:22:23.965Z,968.5
2017-05-12T09:23:26.626Z,968.5
2017-05-12T09:24:29.284Z,968.2
2017-05-12T09:25:32.005Z,968.5
2017-05-12T09:26:34.954Z,968.3
2017-05-12T09:27:37.627Z,968.5
2017-05-12T09:28:40.279Z,968.6
2017-05-12T09:30:54.508Z,968.6
2017-05-12T09:31:57.465Z,968.3
2017-05-12T09:33:00.204Z,968.6
2017-05-12T09:34:03.482Z,968.7
2017-05-12T09:35:06.137Z,968.7
2017-05-12T09:36:08.808Z,968.6
2017-05-12T09:37:12.165Z,968.6
2017-05-12T09:38:14.966Z,968.7
2017-05-12T09:39:17.760Z,968.7
2017-05-12T09:40:20.503Z,968.7
2017-05-12T09:41:23.027Z,968.7
2017-05-12T09:42:25.444Z,968.7
2017-05-12T09:43:28.089Z,968.5
2017-05-12T09:44:30.770Z,968.8
2017-05-12T09:45:33.562Z,968.8
2017-05-12T09:46:38.985Z,968.6
2017-05-12T09:47:41.762Z,968.8
2017-05-12T09:48:44.210Z,968.8
2017-05-12T09:49:46.795Z,968.7
2017-05-12T09:50:49.347Z,968.9
2017-05-12T09:51:51.777Z,968.8
2017-05-12T09:52:54.411Z,968.8
2017-05-12T09:53:56.809Z,968.8
2017-05-12T09:54:59.421Z,968.8
2017-05-12T09:56:02.588Z,968.9
2017-05-12T09:57:05.140Z,968.6
2017-05-12T09:58:08.217Z,968.8
2017-05-12T09:59:10.818Z,968.8
2017-05-12T10:00:13.309Z,968.9
2017-05-12T10:01:15.762Z,968.8
2017-05-12T10:02:18.250Z,968.8
2017-05-12T10:03:21.000Z,968.8
2017-05-12T10:04:23.463Z,968.8
2017-05-12T10:05:26.069Z,968.6
2017-05-12T10:06:28.595Z,968.9
2017-05-12T10:07:31.181Z,968.8
2017-05-12T10:08:33.908Z,968.8
2017-05-12T10:09:36.296Z,968.8
2017-05-12T10:10:38.804Z,968.9
2017-05-12T10:11:42.342Z,968.8
2017-05-12T10:12:45.480Z,968.8
2017-05-12T10:13:49.196Z,968.8
2017-05-12T10:14:51.769Z,968.7
2017-05-12T10:15:54.201Z,968.7
2017-05-12T10:16:56.756Z,968.7
2017-05-12T10:17:59.242Z,968.7
2017-05-12T10:19:01.715Z,968.7
2017-05-12T10:20:04.184Z,968.7
2017-05-12T10:21:07.811Z,968.7
2017-05-12T10:22:10.351Z,968.7
2017-05-12T10:23:12.741Z,968.7
2017-05-12T10:24:15.201Z,968.8
2017-05-12T10:25:17.707Z,968.7
2017-05-12T10:26:20.272Z,968.8
2017-05-12T10:27:22.793Z,968.7
2017-05-12T10:28:25.269Z,968.8
2017-05-12T10:29:27.768Z,968.7
2017-05-12T10:30:30.297Z,968.8
2017-05-12T10:31:32.786Z,968.8
2017-05-12T10:32:35.233Z,968.8
2017-05-12T10:33:37.645Z,968.5
2017-05-12T10:34:40.952Z,968.8
2017-05-12T10:35:43.490Z,968.5
2017-05-12T10:36:45.995Z,968.5
2017-05-12T10:37:49.155Z,968.8
2017-05-12T10:38:51.707Z,968.8
2017-05-12T10:39:54.899Z,968.6
2017-05-12T10:40:57.452Z,968.6
2017-05-12T10:42:00.162Z,968.9
2017-05-12T10:43:02.815Z,968.5
2017-05-12T10:44:05.341Z,968.6
2017-05-12T10:45:07.932Z,968.9
2017-05-12T10:46:10.600Z,968.8
2017-05-12T10:47:13.028Z,968.9
2017-05-12T10:48:15.500Z,968.9
2017-05-12T10:49:18.012Z,969
2017-05-12T10:50:20.842Z,968.9
2017-05-12T10:51:27.257Z,968.7
2017-05-12T10:52:29.832Z,968.9
2017-05-12T10:53:33.484Z,969
2017-05-12T10:54:35.917Z,968.9
2017-05-12T10:55:39.246Z,968.9
2017-05-12T10:56:41.701Z,969
2017-05-12T10:57:44.485Z,969
2017-05-12T10:58:47.021Z,968.9
2017-05-12T10:59:49.698Z,968.8
2017-05-12T11:00:52.408Z,968.7
2017-05-12T11:01:55.030Z,969
2017-05-12T11:02:57.617Z,968.9
2017-05-12T11:04:00.416Z,969
2017-05-12T11:05:04.080Z,968.9
2017-05-12T11:06:06.923Z,969
2017-05-12T11:07:09.767Z,968.9
2017-05-12T11:08:12.819Z,968.9
2017-05-12T11:09:16.074Z,968.8
2017-05-12T11:10:18.691Z,968.9
2017-05-12T11:11:23.435Z,968.9
2017-05-12T11:12:29.693Z,968.9
2017-05-12T11:13:37.344Z,968.8
2017-05-12T11:14:39.825Z,968.9
2017-05-12T11:15:43.014Z,968.9
2017-05-12T11:16:45.563Z,968.9
2017-05-12T11:17:48.110Z,968.9
2017-05-12T11:18:51.533Z,968.9
2017-05-12T11:19:54.027Z,969.1
2017-05-12T11:20:57.921Z,968.8
2017-05-12T11:22:01.548Z,968.9
2017-05-12T11:23:04.743Z,969
2017-05-12T11:24:07.298Z,969
2017-05-12T11:25:09.857Z,969
2017-05-12T11:26:12.382Z,969
2017-05-12T11:27:24.645Z,969.1
2017-05-12T11:28:27.134Z,969.1
2017-05-12T11:29:29.858Z,969.1
2017-05-12T11:30:32.339Z,969.2
2017-05-12T11:31:34.858Z,969.2
2017-05-12T11:32:37.361Z,968.9
2017-05-12T11:33:39.848Z,969.2
2017-05-12T11:34:42.375Z,969.1
2017-05-12T11:35:45.664Z,969.2
2017-05-12T11:36:48.835Z,968.9
2017-05-12T11:37:52.230Z,969.2
2017-05-12T11:38:54.705Z,969.2
2017-05-12T11:39:57.236Z,969.2
2017-05-12T11:40:59.739Z,969.1
2017-05-12T11:42:02.242Z,969.2
2017-05-12T11:43:05.344Z,969.2
2017-05-12T11:44:07.962Z,969
2017-05-12T11:45:10.608Z,969.2
2017-05-12T11:46:13.119Z,969.2
2017-05-12T11:47:16.588Z,969.2
2017-05-12T11:48:19.122Z,969.2
2017-05-12T11:49:21.647Z,969.2
2017-05-12T11:50:24.204Z,969.3
2017-05-12T11:51:26.667Z,969
2017-05-12T11:52:29.857Z,969.3
2017-05-12T11:53:33.532Z,969.3
2017-05-12T11:54:36.090Z,969.3
2017-05-12T11:55:39.358Z,969.3
2017-05-12T11:56:42.884Z,969.3
2017-05-12T11:57:45.418Z,969.3
2017-05-12T11:58:47.918Z,969.3
2017-05-12T11:59:50.447Z,969.3
2017-05-12T12:00:53.622Z,969.3
2017-05-12T12:01:56.840Z,969.3
2017-05-12T12:03:00.495Z,969.4
2017-05-12T12:04:03.130Z,969.2
2017-05-12T12:05:05.667Z,969.3
2017-05-12T12:06:09.823Z,969.3
2017-05-12T12:07:12.283Z,969.4
2017-05-12T12:08:14.765Z,969.4
2017-05-12T12:09:17.264Z,969.3
2017-05-12T12:10:19.834Z,969.3
2017-05-12T12:11:22.296Z,969
2017-05-12T12:12:24.876Z,969.3
2017-05-12T12:13:27.401Z,969.4
2017-05-12T12:14:30.686Z,969.3
2017-05-12T12:15:34.543Z,969.4
2017-05-12T12:16:37.036Z,969.3
2017-05-12T12:17:40.913Z,969.1
2017-05-12T12:18:43.337Z,969.3
2017-05-12T12:20:55.875Z,969.4
2017-05-12T12:21:58.357Z,969.3
2017-05-12T12:23:00.862Z,969.4
2017-05-12T12:24:03.455Z,969.4
2017-05-12T12:25:05.958Z,969.4
2017-05-12T12:26:08.423Z,969.3
2017-05-12T12:27:10.978Z,969.3
2017-05-12T12:28:13.499Z,969.4
2017-05-12T12:29:15.997Z,969.4
2017-05-12T12:30:19.373Z,969.4
2017-05-12T12:31:30.780Z,969.2
2017-05-12T12:32:33.327Z,969.4
2017-05-12T12:33:35.795Z,969.4
2017-05-12T12:34:39.555Z,969.5
2017-05-12T12:35:42.048Z,969.4
2017-05-12T12:36:44.476Z,969.4
2017-05-12T12:37:47.099Z,969.5
2017-05-12T12:38:49.698Z,969.4
2017-05-12T12:39:52.077Z,969.4
2017-05-12T12:40:54.572Z,969.4
2017-05-12T12:41:57.091Z,969.5
2017-05-12T12:42:59.678Z,969.4
2017-05-12T12:44:02.878Z,969.4
2017-05-12T12:45:05.327Z,969.4
2017-05-12T12:46:08.496Z,969.4
2017-05-12T12:47:12.071Z,969.5
2017-05-12T12:48:15.144Z,969.4
2017-05-12T12:49:18.123Z,969.4
2017-05-12T12:50:20.627Z,969.4
2017-05-12T12:51:23.117Z,969.4
2017-05-12T12:52:26.186Z,969.4
2017-05-12T12:53:28.721Z,969.4
2017-05-12T12:54:31.195Z,969.4
2017-05-12T12:55:33.691Z,969.4
2017-05-12T12:56:36.170Z,969.4
2017-05-12T12:57:38.658Z,969.2
2017-05-12T12:58:41.204Z,969.4
2017-05-12T12:59:43.768Z,969.3
2017-05-12T13:00:46.257Z,969.4
2017-05-12T13:01:48.762Z,969.4
2017-05-12T13:02:51.266Z,969.4
2017-05-12T13:03:53.748Z,969.4
2017-05-12T13:04:57.008Z,969.3
2017-05-12T13:05:59.532Z,969.4
2017-05-12T13:07:02.698Z,969.1
2017-05-12T13:08:06.175Z,969.4
2017-05-12T13:09:08.783Z,969.4
2017-05-12T13:10:12.001Z,969.4
2017-05-12T13:11:14.495Z,969.3
2017-05-12T13:12:16.962Z,969.2
2017-05-12T13:13:20.839Z,969.4
2017-05-12T13:14:23.326Z,969.1
2017-05-12T13:15:25.839Z,969.4
2017-05-12T13:16:28.277Z,969.4
2017-05-12T13:17:30.884Z,969.1
2017-05-12T13:18:33.940Z,969.3
2017-05-12T13:19:36.479Z,969.3
2017-05-12T13:20:39.598Z,969.3
2017-05-12T13:21:44.239Z,969.3
2017-05-12T13:22:47.765Z,969.3
2017-05-12T13:23:52.608Z,969.4
2017-05-12T13:24:55.091Z,969.3
2017-05-12T13:25:58.560Z,969.3
2017-05-12T13:27:03.286Z,969.3
2017-05-12T13:28:06.973Z,969.2
2017-05-12T13:29:09.614Z,969.3
2017-05-12T13:30:12.781Z,969.3
2017-05-12T13:31:16.408Z,969.3
2017-05-12T13:32:19.349Z,969.3
2017-05-12T13:33:23.741Z,969.3
2017-05-12T13:34:26.247Z,969.1